createdAt,value
2023-01-10T00:00:55.197Z,946.1
2023-01-10T00:01:55.174Z,946.12
2023-01-10T00:02:55.194Z,946.16
2023-01-10T00:03:55.141Z,946.19
2023-01-10T00:04:55.182Z,946.18
2023-01-10T00:05:55.105Z,946.24
2023-01-10T00:06:55.086Z,946.25
2023-01-10T00:07:55.067Z,946.27
2023-01-10T00:08:55.056Z,946.3
2023-01-10T00:09:55.036Z,946.28
2023-01-10T00:10:55.018Z,946.34
2023-01-10T00:11:54.998Z,946.35
2023-01-10T00:12:54.982Z,946.36
2023-01-10T00:13:54.972Z,946.38
2023-01-10T00:14:54.949Z,946.39
2023-01-10T00:15:54.998Z,946.42
2023-01-10T00:16:54.915Z,946.41
2023-01-10T00:17:54.893Z,946.43
2023-01-10T00:18:54.879Z,946.47
2023-01-10T00:19:54.863Z,946.48
2023-01-10T00:20:54.874Z,946.44
2023-01-10T00:21:54.829Z,946.45
2023-01-10T00:22:54.808Z,946.48
2023-01-10T00:23:54.791Z,946.46
2023-01-10T00:24:54.772Z,946.54
2023-01-10T00:25:54.757Z,946.45
2023-01-10T00:26:54.741Z,946.49
2023-01-10T00:27:54.728Z,946.49
2023-01-10T00:28:54.703Z,946.53
2023-01-10T00:29:54.686Z,946.57
2023-01-10T00:30:54.750Z,946.56
2023-01-10T00:31:54.651Z,946.57
2023-01-10T00:32:54.633Z,946.57
2023-01-10T00:33:54.618Z,946.55
2023-01-10T00:34:54.602Z,946.62
2023-01-10T00:35:54.582Z,946.6
2023-01-10T00:36:54.589Z,946.62
2023-01-10T00:37:54.549Z,946.62
2023-01-10T00:38:54.532Z,946.64
2023-01-10T00:39:54.516Z,946.61
2023-01-10T00:40:54.499Z,946.64
2023-01-10T00:41:54.480Z,946.66
2023-01-10T00:42:54.459Z,946.69
2023-01-10T00:43:54.445Z,946.65
2023-01-10T00:44:54.425Z,946.7
2023-01-10T00:45:54.435Z,946.66
2023-01-10T00:46:54.407Z,946.64
2023-01-10T00:47:54.375Z,946.64
2023-01-10T00:48:54.358Z,946.69
2023-01-10T00:49:54.341Z,946.74
2023-01-10T00:50:54.320Z,946.75
2023-01-10T00:51:54.305Z,946.76
2023-01-10T00:52:54.318Z,946.76
2023-01-10T00:53:54.271Z,946.76
2023-01-10T00:54:54.253Z,946.81
2023-01-10T00:55:54.237Z,946.83
2023-01-10T00:56:54.217Z,946.82
2023-01-10T00:57:54.204Z,946.88
2023-01-10T00:58:54.186Z,946.89
2023-01-10T00:59:54.167Z,946.91
2023-01-10T01:00:54.176Z,946.93
2023-01-10T01:01:54.324Z,946.98
2023-01-10T01:02:54.145Z,946.95
2023-01-10T01:03:54.098Z,947.02
2023-01-10T01:04:54.079Z,947.03
2023-01-10T01:05:54.061Z,946.98
2023-01-10T01:06:54.043Z,947.02
2023-01-10T01:07:54.025Z,947.03
2023-01-10T01:08:54.032Z,947.04
2023-01-10T01:09:53.989Z,947.09
2023-01-10T01:10:53.974Z,947.12
2023-01-10T01:11:53.954Z,947.14
2023-01-10T01:12:53.937Z,947.17
2023-01-10T01:13:53.918Z,947.16
2023-01-10T01:14:53.901Z,947.14
2023-01-10T01:15:53.901Z,947.15
2023-01-10T01:16:53.884Z,947.19
2023-01-10T01:17:53.848Z,947.22
2023-01-10T01:18:53.836Z,947.23
2023-01-10T01:19:53.811Z,947.25
2023-01-10T01:20:53.794Z,947.26
2023-01-10T01:21:53.782Z,947.29
2023-01-10T01:22:53.768Z,947.26
2023-01-10T01:23:53.749Z,947.25
2023-01-10T01:24:53.763Z,947.26
2023-01-10T01:25:53.716Z,947.27
2023-01-10T01:26:53.690Z,947.26
2023-01-10T01:27:53.674Z,947.28
2023-01-10T01:28:53.658Z,947.27
2023-01-10T01:29:53.638Z,947.34
2023-01-10T01:30:53.708Z,947.38
2023-01-10T01:31:53.602Z,947.42
2023-01-10T01:32:53.586Z,947.43
2023-01-10T01:33:53.568Z,947.51
2023-01-10T01:34:53.550Z,947.48
2023-01-10T01:35:53.531Z,947.51
2023-01-10T01:36:53.526Z,947.54
2023-01-10T01:37:53.505Z,947.58
2023-01-10T01:38:53.479Z,947.55
2023-01-10T01:39:53.461Z,947.58
2023-01-10T01:40:53.467Z,947.61
2023-01-10T01:41:53.433Z,947.61
2023-01-10T01:42:53.407Z,947.63
2023-01-10T01:43:53.397Z,947.68
2023-01-10T01:44:53.373Z,947.63
2023-01-10T01:45:53.353Z,947.65
2023-01-10T01:46:53.337Z,947.71
2023-01-10T01:47:53.320Z,947.71
2023-01-10T01:48:53.302Z,947.74
2023-01-10T01:49:53.326Z,947.72
2023-01-10T01:50:53.274Z,947.74
2023-01-10T01:51:53.248Z,947.77
2023-01-10T01:52:53.231Z,947.78
2023-01-10T01:53:53.212Z,947.82
2023-01-10T01:54:53.197Z,947.81
2023-01-10T01:55:53.176Z,947.81
2023-01-10T01:56:53.186Z,947.89
2023-01-10T01:57:53.143Z,947.9
2023-01-10T01:58:53.143Z,947.92
2023-01-10T01:59:53.113Z,947.92
2023-01-10T02:00:53.120Z,947.96
2023-01-10T02:01:53.159Z,947.97
2023-01-10T02:03:02.035Z,948.01
2023-01-10T02:03:53.080Z,948.02
2023-01-10T02:04:53.022Z,948.04
2023-01-10T02:05:53.001Z,948.04
2023-01-10T02:06:52.983Z,948.08
2023-01-10T02:07:52.969Z,948.04
2023-01-10T02:08:52.949Z,948.01
2023-01-10T02:09:52.933Z,948.03
2023-01-10T02:10:52.916Z,948.03
2023-01-10T02:11:52.901Z,948.09
2023-01-10T02:12:52.904Z,948.05
2023-01-10T02:13:52.868Z,948.07
2023-01-10T02:14:52.846Z,948.06
2023-01-10T02:15:52.891Z,948.07
2023-01-10T02:16:52.810Z,948.07
2023-01-10T02:17:52.792Z,948.08
2023-01-10T02:18:52.773Z,948.1
2023-01-10T02:19:52.762Z,948.11
2023-01-10T02:20:52.740Z,948.11
2023-01-10T02:21:52.722Z,948.15
2023-01-10T02:22:52.704Z,948.17
2023-01-10T02:23:52.690Z,948.2
2023-01-10T02:24:52.669Z,948.19
2023-01-10T02:26:52.634Z,948.22
2023-01-10T02:27:52.617Z,948.2
2023-01-10T02:28:52.633Z,948.24
2023-01-10T02:29:52.583Z,948.27
2023-01-10T02:30:52.580Z,948.26
2023-01-10T02:31:52.546Z,948.24
2023-01-10T02:33:04.171Z,948.29
2023-01-10T02:33:52.514Z,948.24
2023-01-10T02:34:52.495Z,948.25
2023-01-10T02:35:52.479Z,948.27
2023-01-10T02:36:52.459Z,948.28
2023-01-10T02:37:52.441Z,948.28
2023-01-10T02:38:52.424Z,948.26
2023-01-10T02:39:52.407Z,948.29
2023-01-10T02:40:52.389Z,948.34
2023-01-10T02:41:52.423Z,948.33
2023-01-10T02:42:52.355Z,948.34
2023-01-10T02:43:52.345Z,948.35
2023-01-10T02:44:52.354Z,948.37
2023-01-10T02:45:52.303Z,948.36
2023-01-10T02:46:52.344Z,948.33
2023-01-10T02:47:52.267Z,948.31
2023-01-10T02:48:52.254Z,948.32
2023-01-10T02:49:52.257Z,948.37
2023-01-10T02:50:52.216Z,948.41
2023-01-10T02:51:52.197Z,948.45
2023-01-10T02:52:52.179Z,948.44
2023-01-10T02:53:52.163Z,948.46
2023-01-10T02:54:52.148Z,948.5
2023-01-10T02:55:52.129Z,948.48
2023-01-10T02:56:52.108Z,948.45
2023-01-10T02:57:52.096Z,948.51
2023-01-10T02:58:52.076Z,948.49
2023-01-10T02:59:52.058Z,948.52
2023-01-10T03:00:52.087Z,948.55
2023-01-10T03:01:52.072Z,948.53
2023-01-10T03:02:52.006Z,948.68
2023-01-10T03:03:51.988Z,948.69
2023-01-10T03:04:52.043Z,948.7
2023-01-10T03:05:51.950Z,948.77
2023-01-10T03:06:51.938Z,948.76
2023-01-10T03:07:51.920Z,948.8
2023-01-10T03:08:51.902Z,948.81
2023-01-10T03:09:51.883Z,948.84
2023-01-10T03:10:51.865Z,948.82
2023-01-10T03:11:51.852Z,948.9
2023-01-10T03:12:51.832Z,948.89
2023-01-10T03:13:51.818Z,948.93
2023-01-10T03:14:51.798Z,948.91
2023-01-10T03:15:51.819Z,948.91
2023-01-10T03:16:51.790Z,948.96
2023-01-10T03:17:51.748Z,948.94
2023-01-10T03:18:51.727Z,948.91
2023-01-10T03:19:51.709Z,948.93
2023-01-10T03:20:51.698Z,948.97
2023-01-10T03:21:51.673Z,948.99
2023-01-10T03:22:51.659Z,949.01
2023-01-10T03:23:51.642Z,949.08
2023-01-10T03:24:51.619Z,949.05
2023-01-10T03:25:51.605Z,949.08
2023-01-10T03:26:51.592Z,949.11
2023-01-10T03:27:51.578Z,949.14
2023-01-10T03:28:51.558Z,949.14
2023-01-10T03:29:51.541Z,949.14
2023-01-10T03:30:51.518Z,949.11
2023-01-10T03:31:51.498Z,949.19
2023-01-10T03:32:51.508Z,949.2
2023-01-10T03:49:57.578Z,949.64
2023-01-10T03:50:57.516Z,949.61
2023-01-10T03:51:57.498Z,949.62
2023-01-10T03:52:57.480Z,949.69
2023-01-10T03:53:57.459Z,949.69
2023-01-10T03:54:57.438Z,949.71
2023-01-10T03:55:57.419Z,949.76
2023-01-10T03:56:57.416Z,949.79
2023-01-10T03:57:57.399Z,949.78
2023-01-10T03:58:57.361Z,949.88
2023-01-10T03:59:57.345Z,949.89
2023-01-10T04:00:57.423Z,949.9
2023-01-10T04:01:57.401Z,949.92
2023-01-10T04:02:57.288Z,949.93
2023-01-10T04:03:57.340Z,949.91
2023-01-10T04:04:57.251Z,949.88
2023-01-10T04:05:57.259Z,949.94
2023-01-10T04:06:57.219Z,949.94
2023-01-10T04:07:57.207Z,949.93
2023-01-10T04:08:57.182Z,949.95
2023-01-10T04:09:57.180Z,949.98
2023-01-10T04:10:57.147Z,950
2023-01-10T04:11:57.127Z,950.01
2023-01-10T04:12:57.109Z,949.99
2023-01-10T04:13:57.091Z,949.99
2023-01-10T04:14:57.071Z,950.02
2023-01-10T04:15:57.170Z,950.05
2023-01-10T04:16:57.044Z,950.05
2023-01-10T04:17:57.025Z,950.11
2023-01-10T04:18:57.003Z,950.14
2023-01-10T04:19:56.985Z,950.12
2023-01-10T04:20:56.971Z,950.17
2023-01-10T04:21:56.992Z,950.17
2023-01-10T04:22:56.935Z,950.22
2023-01-10T04:23:56.916Z,950.22
2023-01-10T04:24:56.895Z,950.27
2023-01-10T04:25:56.878Z,950.34
2023-01-10T04:26:56.859Z,950.31
2023-01-10T04:27:56.844Z,950.32
2023-01-10T04:28:57.062Z,950.31
2023-01-10T04:29:57.045Z,950.35
2023-01-10T04:30:57.026Z,950.37
2023-01-10T04:31:57.011Z,950.38
2023-01-10T04:32:57.012Z,950.4
2023-01-10T04:33:56.975Z,950.39
2023-01-10T04:34:56.964Z,950.45
2023-01-10T04:35:56.941Z,950.45
2023-01-10T04:36:56.922Z,950.48
2023-01-10T04:37:56.929Z,950.47
2023-01-10T04:38:56.889Z,950.47
2023-01-10T04:39:56.871Z,950.44
2023-01-10T04:40:56.853Z,950.48
2023-01-10T04:41:56.856Z,950.48
2023-01-10T04:42:56.818Z,950.48
2023-01-10T04:43:56.801Z,950.52
2023-01-10T04:44:56.785Z,950.52
2023-01-10T04:45:56.774Z,950.54
2023-01-10T04:46:56.758Z,950.61
2023-01-10T04:47:56.732Z,950.56
2023-01-10T04:48:56.713Z,950.62
2023-01-10T04:49:56.693Z,950.66
2023-01-10T04:50:56.681Z,950.62
2023-01-10T04:51:56.659Z,950.6
2023-01-10T04:52:56.645Z,950.63
2023-01-10T04:53:56.651Z,950.68
2023-01-10T04:54:56.609Z,950.69
2023-01-10T04:55:56.590Z,950.68
2023-01-10T04:56:56.574Z,950.69
2023-01-10T04:57:56.556Z,950.68
2023-01-10T04:58:56.537Z,950.72
2023-01-10T04:59:56.519Z,950.76
2023-01-10T05:00:56.505Z,950.76
2023-01-10T05:01:56.582Z,950.76
2023-01-10T05:02:56.678Z,950.8
2023-01-10T05:03:56.468Z,950.81
2023-01-10T05:04:56.435Z,950.81
2023-01-10T05:05:56.417Z,950.84
2023-01-10T05:06:56.400Z,950.82
2023-01-10T05:07:56.381Z,950.84
2023-01-10T05:08:56.365Z,950.86
2023-01-10T05:09:56.373Z,950.86
2023-01-10T05:10:56.337Z,950.92
2023-01-10T05:11:56.317Z,951.01
2023-01-10T05:12:56.298Z,950.95
2023-01-10T05:13:56.279Z,950.98
2023-01-10T05:14:56.261Z,950.96
2023-01-10T05:15:56.245Z,951
2023-01-10T05:16:56.239Z,951.06
2023-01-10T05:17:56.209Z,951.1
2023-01-10T05:18:56.194Z,951.08
2023-01-10T05:19:56.174Z,951.09
2023-01-10T05:20:56.158Z,951.11
2023-01-10T05:21:56.147Z,951.13
2023-01-10T05:22:56.127Z,951.14
2023-01-10T05:23:56.103Z,951.15
2023-01-10T05:24:56.089Z,951.16
2023-01-10T05:25:56.094Z,951.2
2023-01-10T05:26:56.064Z,951.28
2023-01-10T05:27:56.035Z,951.32
2023-01-10T05:28:56.019Z,951.34
2023-01-10T05:29:56.005Z,951.43
2023-01-10T05:30:55.986Z,951.42
2023-01-10T05:31:56.017Z,951.41
2023-01-10T05:32:55.952Z,951.42
2023-01-10T05:33:55.931Z,951.48
2023-01-10T05:34:55.911Z,951.53
2023-01-10T05:35:55.897Z,951.48
2023-01-10T05:36:55.879Z,951.47
2023-01-10T05:37:55.861Z,951.53
2023-01-10T05:38:55.845Z,951.5
2023-01-10T05:39:55.827Z,951.54
2023-01-10T05:40:55.809Z,951.55
2023-01-10T05:41:55.817Z,951.55
2023-01-10T05:42:55.772Z,951.53
2023-01-10T05:43:55.755Z,951.58
2023-01-10T05:44:55.737Z,951.53
2023-01-10T05:45:55.768Z,951.59
2023-01-10T05:46:55.701Z,951.57
2023-01-10T05:47:55.697Z,951.62
2023-01-10T05:48:55.666Z,951.59
2023-01-10T05:49:55.652Z,951.58
2023-01-10T05:50:55.631Z,951.61
2023-01-10T05:51:55.615Z,951.61
2023-01-10T05:52:55.594Z,951.65
2023-01-10T05:53:55.582Z,951.7
2023-01-10T05:54:55.568Z,951.7
2023-01-10T05:55:55.548Z,951.68
2023-01-10T05:56:55.526Z,951.73
2023-01-10T05:57:55.532Z,951.76
2023-01-10T05:59:05.204Z,951.78
2023-01-10T05:59:55.475Z,951.79
2023-01-10T06:00:55.496Z,951.81
2023-01-10T06:01:55.472Z,951.85
2023-01-10T06:02:55.547Z,951.84
2023-01-10T06:03:55.414Z,951.86
2023-01-10T06:04:55.432Z,951.87
2023-01-10T06:05:55.391Z,951.93
2023-01-10T06:06:55.348Z,951.99
2023-01-10T06:07:56.221Z,952
2023-01-10T06:08:56.202Z,952.03
2023-01-10T06:09:56.185Z,952.03
2023-01-10T06:10:56.165Z,952.08
2023-01-10T06:11:56.152Z,952.08
2023-01-10T06:12:56.131Z,952.12
2023-01-10T06:13:56.164Z,952.11
2023-01-10T06:14:56.099Z,952.17
2023-01-10T06:15:56.094Z,952.22
2023-01-10T06:16:56.062Z,952.23
2023-01-10T06:17:56.043Z,952.23
2023-01-10T06:18:56.024Z,952.25
2023-01-10T06:19:56.009Z,952.27
2023-01-10T06:20:55.991Z,952.3
2023-01-10T06:21:55.975Z,952.31
2023-01-10T06:22:55.953Z,952.33
2023-01-10T06:23:55.943Z,952.32
2023-01-10T06:24:55.920Z,952.42
2023-01-10T06:25:55.904Z,952.47
2023-01-10T06:26:55.888Z,952.5
2023-01-10T06:27:55.890Z,952.55
2023-01-10T06:28:55.861Z,952.56
2023-01-10T06:29:56.593Z,952.56
2023-01-10T06:30:56.560Z,952.57
2023-01-10T06:31:56.532Z,952.58
2023-01-10T06:32:56.516Z,952.6
2023-01-10T06:33:56.499Z,952.57
2023-01-10T06:34:56.480Z,952.65
2023-01-10T06:35:56.461Z,952.63
2023-01-10T06:36:56.446Z,952.67
2023-01-10T06:37:56.427Z,952.68
2023-01-10T06:38:56.411Z,952.64
2023-01-10T06:39:56.392Z,952.66
2023-01-10T06:40:56.375Z,952.73
2023-01-10T06:41:56.361Z,952.74
2023-01-10T06:42:56.344Z,952.76
2023-01-10T06:43:56.320Z,952.75
2023-01-10T06:44:56.307Z,952.8
2023-01-10T06:45:56.332Z,952.82
2023-01-10T06:46:56.270Z,952.82
2023-01-10T06:47:56.256Z,952.86
2023-01-10T06:48:56.234Z,952.88
2023-01-10T06:49:56.213Z,952.92
2023-01-10T06:50:56.199Z,952.93
2023-01-10T06:51:56.980Z,952.92
2023-01-10T06:52:56.956Z,952.95
2023-01-10T06:53:56.937Z,952.93
2023-01-10T06:54:56.920Z,953.01
2023-01-10T06:55:56.901Z,953.01
2023-01-10T06:56:56.891Z,953.04
2023-01-10T06:57:56.873Z,953.06
2023-01-10T06:58:56.850Z,953.05
2023-01-10T06:59:56.830Z,953.07
2023-01-10T07:00:56.912Z,953.05
2023-01-10T07:01:56.914Z,953.11
2023-01-10T07:02:56.778Z,953.12
2023-01-10T07:03:56.791Z,953.12
2023-01-10T07:04:56.746Z,953.17
2023-01-10T07:05:56.724Z,953.13
2023-01-10T07:06:56.707Z,953.19
2023-01-10T07:07:56.688Z,953.15
2023-01-10T07:08:56.690Z,953.16
2023-01-10T07:09:56.652Z,953.23
2023-01-10T07:10:56.641Z,953.27
2023-01-10T07:11:56.616Z,953.26
2023-01-10T07:12:56.609Z,953.33
2023-01-10T07:13:57.514Z,953.31
2023-01-10T07:14:57.488Z,953.36
2023-01-10T07:15:57.474Z,953.36
2023-01-10T07:16:57.453Z,953.4
2023-01-10T07:17:57.459Z,953.43
2023-01-10T07:18:57.416Z,953.42
2023-01-10T07:19:57.400Z,953.4
2023-01-10T07:20:57.382Z,953.43
2023-01-10T07:21:57.366Z,953.45
2023-01-10T07:22:57.346Z,953.43
2023-01-10T07:23:57.332Z,953.5
2023-01-10T07:24:57.316Z,953.53
2023-01-10T07:25:57.296Z,953.53
2023-01-10T07:26:57.275Z,953.6
2023-01-10T07:27:57.288Z,953.64
2023-01-10T07:28:57.256Z,953.62
2023-01-10T07:29:57.224Z,953.68
2023-01-10T07:30:57.231Z,953.72
2023-01-10T07:31:57.187Z,953.69
2023-01-10T07:32:57.172Z,953.69
2023-01-10T07:33:57.184Z,953.73
2023-01-10T07:34:57.133Z,953.72
2023-01-10T07:35:57.117Z,953.74
2023-01-10T07:36:57.097Z,953.73
2023-01-10T07:37:57.078Z,953.77
2023-01-10T07:38:57.059Z,953.78
2023-01-10T07:39:57.042Z,953.78
2023-01-10T07:40:57.025Z,953.84
2023-01-10T07:41:57.011Z,953.88
2023-01-10T07:42:56.988Z,953.91
2023-01-10T07:43:56.972Z,953.97
2023-01-10T07:44:56.953Z,954.03
2023-01-10T07:45:56.990Z,954.05
2023-01-10T07:46:56.915Z,954.02
2023-01-10T07:47:56.915Z,954.05
2023-01-10T07:48:56.881Z,954.09
2023-01-10T07:49:56.892Z,954.06
2023-01-10T07:50:56.843Z,954.07
2023-01-10T07:51:56.830Z,954.1
2023-01-10T07:52:56.813Z,954.12
2023-01-10T07:53:56.793Z,954.16
2023-01-10T07:54:56.774Z,954.19
2023-01-10T07:55:56.758Z,954.23
2023-01-10T07:56:56.740Z,954.24
2023-01-10T07:57:56.721Z,954.25
2023-01-10T07:58:56.703Z,954.25
2023-01-10T07:59:56.688Z,954.28
2023-01-10T08:00:56.703Z,954.27
2023-01-10T08:01:56.651Z,954.32
2023-01-10T08:02:56.795Z,954.35
2023-01-10T08:03:56.621Z,954.34
2023-01-10T08:04:56.595Z,954.37
2023-01-10T08:05:56.601Z,954.38
2023-01-10T08:06:56.564Z,954.44
2023-01-10T08:07:56.545Z,954.41
2023-01-10T08:08:56.529Z,954.41
2023-01-10T08:09:56.508Z,954.47
2023-01-10T08:10:56.502Z,954.46
2023-01-10T08:11:56.474Z,954.46
2023-01-10T08:12:56.524Z,954.45
2023-01-10T08:13:56.439Z,954.49
2023-01-10T08:14:56.422Z,954.5
2023-01-10T08:15:56.434Z,954.51
2023-01-10T08:16:56.385Z,954.52
2023-01-10T08:17:56.371Z,954.54
2023-01-10T08:18:56.351Z,954.54
2023-01-10T08:19:56.338Z,954.53
2023-01-10T08:20:56.325Z,954.55
2023-01-10T08:21:56.329Z,954.55
2023-01-10T08:22:56.281Z,954.61
2023-01-10T08:23:56.263Z,954.64
2023-01-10T08:24:56.246Z,954.58
2023-01-10T08:25:56.227Z,954.66
2023-01-10T08:26:56.212Z,954.73
2023-01-10T08:27:56.200Z,954.74
2023-01-10T08:28:56.175Z,954.72
2023-01-10T08:29:56.156Z,954.72
2023-01-10T08:30:56.209Z,954.75
2023-01-10T08:31:56.123Z,954.71
2023-01-10T08:32:56.111Z,954.79
2023-01-10T08:33:56.088Z,954.8
2023-01-10T08:34:56.075Z,954.79
2023-01-10T08:35:56.050Z,954.84
2023-01-10T08:36:56.035Z,954.82
2023-01-10T08:37:56.061Z,954.86
2023-01-10T08:38:56.023Z,954.83
2023-01-10T08:39:55.989Z,954.81
2023-01-10T08:40:55.982Z,954.84
2023-01-10T08:41:55.952Z,954.88
2023-01-10T08:42:55.929Z,954.89
2023-01-10T08:43:55.910Z,954.93
2023-01-10T08:44:55.894Z,954.96
2023-01-10T08:45:55.875Z,955.02
2023-01-10T08:46:55.875Z,955.05
2023-01-10T08:47:55.849Z,955.07
2023-01-10T08:48:55.822Z,955.07
2023-01-10T08:49:55.807Z,955.11
2023-01-10T08:50:55.796Z,955.11
2023-01-10T08:51:55.777Z,955.15
2023-01-10T08:52:55.757Z,955.14
2023-01-10T08:53:55.771Z,955.2
2023-01-10T08:54:55.720Z,955.19
2023-01-10T08:55:55.700Z,955.14
2023-01-10T08:56:55.683Z,955.17
2023-01-10T08:57:55.696Z,955.21
2023-01-10T08:58:55.649Z,955.26
2023-01-10T08:59:55.639Z,955.31
2023-01-10T09:00:55.630Z,955.27
2023-01-10T09:01:55.617Z,955.34
2023-01-10T09:02:55.640Z,955.38
2023-01-10T09:03:55.561Z,955.33
2023-01-10T09:04:55.543Z,955.39
2023-01-10T09:05:55.527Z,955.37
2023-01-10T09:06:55.512Z,955.41
2023-01-10T09:07:55.492Z,955.42
2023-01-10T09:08:55.477Z,955.4
2023-01-10T09:09:55.495Z,955.39
2023-01-10T09:10:55.438Z,955.42
2023-01-10T09:11:55.421Z,955.42
2023-01-10T09:12:55.430Z,955.41
2023-01-10T09:13:55.387Z,955.43
2023-01-10T09:14:55.370Z,955.46
2023-01-10T09:15:55.381Z,955.44
2023-01-10T09:16:55.349Z,955.46
2023-01-10T09:17:55.318Z,955.41
2023-01-10T09:18:55.300Z,955.46
2023-01-10T09:19:55.284Z,955.52
2023-01-10T09:20:55.263Z,955.48
2023-01-10T09:21:55.246Z,955.52
2023-01-10T09:22:55.228Z,955.47
2023-01-10T09:23:55.213Z,955.46
2023-01-10T09:24:55.201Z,955.53
2023-01-10T09:25:55.203Z,955.53
2023-01-10T09:26:55.170Z,955.49
2023-01-10T09:27:55.144Z,955.52
2023-01-10T09:28:55.126Z,955.54
2023-01-10T09:29:55.114Z,955.56
2023-01-10T09:30:55.091Z,955.63
2023-01-10T09:31:55.075Z,955.64
2023-01-10T09:32:55.053Z,955.62
2023-01-10T09:33:55.036Z,955.62
2023-01-10T09:34:55.018Z,955.58
2023-01-10T09:35:55.004Z,955.64
2023-01-10T09:36:54.984Z,955.68
2023-01-10T09:37:54.969Z,955.67
2023-01-10T09:38:54.950Z,955.71
2023-01-10T09:39:54.936Z,955.75
2023-01-10T09:40:54.922Z,955.77
2023-01-10T09:41:54.931Z,955.77
2023-01-10T09:42:54.898Z,955.74
2023-01-10T09:43:54.870Z,955.76
2023-01-10T09:44:54.848Z,955.79
2023-01-10T09:45:54.841Z,955.78
2023-01-10T09:46:54.871Z,955.76
2023-01-10T09:47:54.800Z,955.77
2023-01-10T09:48:54.777Z,955.8
2023-01-10T09:49:54.759Z,955.82
2023-01-10T09:50:54.744Z,955.76
2023-01-10T09:51:54.725Z,955.77
2023-01-10T09:52:54.710Z,955.78
2023-01-10T09:53:55.755Z,955.76
2023-01-10T09:54:54.676Z,955.74
2023-01-10T09:55:54.657Z,955.73
2023-01-10T09:56:54.640Z,955.81
2023-01-10T09:57:54.649Z,955.79
2023-01-10T09:58:54.606Z,955.81
2023-01-10T09:59:54.627Z,955.82
2023-01-10T10:00:54.616Z,955.84
2023-01-10T10:01:54.553Z,955.85
2023-01-10T10:02:54.586Z,955.92
2023-01-10T10:03:54.568Z,955.93
2023-01-10T10:04:54.505Z,955.9
2023-01-10T10:06:00.941Z,955.94
2023-01-10T10:06:54.566Z,955.96
2023-01-10T10:07:54.555Z,955.98
2023-01-10T10:08:54.532Z,956
2023-01-10T10:09:54.512Z,956.08
2023-01-10T10:10:54.501Z,956.07
2023-01-10T10:11:54.477Z,956.1
2023-01-10T10:12:54.466Z,956.02
2023-01-10T10:13:54.524Z,956.01
2023-01-10T10:14:54.433Z,956
2023-01-10T10:15:54.455Z,955.96
2023-01-10T10:16:54.397Z,956.02
2023-01-10T10:17:54.378Z,956.04
2023-01-10T10:18:54.368Z,956.08
2023-01-10T10:19:54.368Z,956.08
2023-01-10T10:20:54.329Z,956.09
2023-01-10T10:21:54.310Z,956.08
2023-01-10T10:22:54.294Z,956.07
2023-01-10T10:23:54.280Z,956.06
2023-01-10T10:24:54.258Z,956.06
2023-01-10T10:25:54.248Z,956.06
2023-01-10T10:26:54.226Z,956.04
2023-01-10T10:27:54.207Z,956.02
2023-01-10T10:28:55.334Z,956.04
2023-01-10T10:29:54.205Z,956.05
2023-01-10T10:30:54.162Z,955.99
2023-01-10T10:31:54.137Z,955.98
2023-01-10T10:32:54.132Z,955.98
2023-01-10T10:33:54.104Z,955.94
2023-01-10T10:34:54.098Z,955.92
2023-01-10T10:35:54.074Z,955.96
2023-01-10T10:36:54.054Z,955.96
2023-01-10T10:37:54.041Z,955.97
2023-01-10T10:38:54.030Z,955.99
2023-01-10T10:39:54.008Z,956.01
2023-01-10T10:40:53.987Z,956.05
2023-01-10T10:41:53.973Z,956.05
2023-01-10T10:42:53.959Z,956.02
2023-01-10T10:43:53.939Z,956.06
2023-01-10T10:44:53.919Z,956.03
2023-01-10T10:45:54.019Z,955.99
2023-01-10T10:46:53.887Z,955.98
2023-01-10T10:47:53.871Z,955.91
2023-01-10T10:48:53.853Z,955.79
2023-01-10T10:49:53.841Z,955.74
2023-01-10T10:50:53.819Z,955.68
2023-01-10T10:51:53.810Z,955.62
2023-01-10T10:52:53.787Z,955.62
2023-01-10T10:53:53.788Z,955.64
2023-01-10T10:54:53.751Z,955.61
2023-01-10T10:55:53.749Z,955.63
2023-01-10T10:56:53.718Z,955.69
2023-01-10T10:58:00.331Z,955.68
2023-01-10T10:58:53.689Z,955.75
2023-01-10T10:59:53.669Z,955.79
2023-01-10T11:00:53.774Z,955.85
2023-01-10T11:01:53.803Z,955.85
2023-01-10T11:02:53.619Z,955.88
2023-01-10T11:03:53.608Z,955.87
2023-01-10T11:04:53.630Z,955.83
2023-01-10T11:05:53.573Z,955.84
2023-01-10T11:06:53.558Z,955.8
2023-01-10T11:07:53.537Z,955.83
2023-01-10T11:08:53.523Z,955.82
2023-01-10T11:09:53.510Z,955.8
2023-01-10T11:10:53.485Z,955.82
2023-01-10T11:11:53.473Z,955.85
2023-01-10T11:12:53.455Z,955.85
2023-01-10T11:13:53.441Z,955.87
2023-01-10T11:14:53.423Z,955.88
2023-01-10T11:15:55.979Z,955.98
2023-01-10T11:16:53.389Z,956.01
2023-01-10T11:17:53.418Z,956
2023-01-10T11:18:53.355Z,956.02
2023-01-10T11:19:53.340Z,956.01
2023-01-10T11:20:53.325Z,955.99
2023-01-10T11:21:53.308Z,955.97
2023-01-10T11:22:53.299Z,955.95
2023-01-10T11:23:53.274Z,955.95
2023-01-10T11:24:53.256Z,955.93
2023-01-10T11:25:53.242Z,955.96
2023-01-10T11:26:53.226Z,955.99
2023-01-10T11:27:53.212Z,955.97
2023-01-10T11:28:53.192Z,955.93
2023-01-10T11:29:53.187Z,955.91
2023-01-10T11:30:53.158Z,955.87
2023-01-10T11:31:53.203Z,955.93
2023-01-10T11:32:53.151Z,955.92
2023-01-10T11:33:53.157Z,955.95
2023-01-10T11:34:53.095Z,955.98
2023-01-10T11:35:53.077Z,956
2023-01-10T11:36:53.059Z,956
2023-01-10T11:37:53.049Z,956.01
2023-01-10T11:38:53.029Z,956.03
2023-01-10T11:39:53.010Z,956.03
2023-01-10T11:40:53.000Z,956.07
2023-01-10T11:41:52.983Z,956.14
2023-01-10T11:42:52.986Z,956.12
2023-01-10T11:43:52.949Z,956.15
2023-01-10T11:44:52.940Z,956.19
2023-01-10T11:45:52.943Z,956.17
2023-01-10T11:46:52.904Z,956.17
2023-01-10T11:47:52.890Z,956.16
2023-01-10T11:49:06.022Z,956.05
2023-01-10T11:49:52.876Z,956.08
2023-01-10T11:50:52.836Z,956.1
2023-01-10T11:51:52.834Z,956.16
2023-01-10T11:52:52.805Z,956.18
2023-01-10T11:53:52.787Z,956.18
2023-01-10T11:54:52.770Z,956.18
2023-01-10T11:55:52.753Z,956.15
2023-01-10T11:56:52.741Z,956.16
2023-01-10T11:57:52.724Z,956.13
2023-01-10T11:58:52.706Z,956.17
2023-01-10T11:59:52.693Z,956.18
2023-01-10T12:00:52.732Z,956.21
2023-01-10T12:01:52.774Z,956.26
2023-01-10T12:02:52.645Z,956.28
2023-01-10T12:03:52.622Z,956.29
2023-01-10T12:04:52.631Z,956.26
2023-01-10T12:05:52.618Z,956.31
2023-01-10T12:06:52.586Z,956.31
2023-01-10T12:07:52.557Z,956.3
2023-01-10T12:08:52.541Z,956.31
2023-01-10T12:09:52.526Z,956.32
2023-01-10T12:10:52.509Z,956.35
2023-01-10T12:11:52.491Z,956.36
2023-01-10T12:12:52.476Z,956.35
2023-01-10T12:13:52.456Z,956.42
2023-01-10T12:14:52.445Z,956.4
2023-01-10T12:15:52.425Z,956.4
2023-01-10T12:16:52.444Z,956.38
2023-01-10T12:17:52.391Z,956.35
2023-01-10T12:18:52.389Z,956.32
2023-01-10T12:19:52.357Z,956.32
2023-01-10T12:20:52.347Z,956.34
2023-01-10T12:21:52.355Z,956.36
2023-01-10T12:22:52.310Z,956.37
2023-01-10T12:23:52.295Z,956.31
2023-01-10T12:24:52.329Z,956.33
2023-01-10T12:25:57.478Z,956.35
2023-01-10T12:26:52.241Z,956.31
2023-01-10T12:27:52.229Z,956.32
2023-01-10T12:28:52.209Z,956.36
2023-01-10T12:29:52.195Z,956.39
2023-01-10T12:30:52.269Z,956.39
2023-01-10T12:31:52.162Z,956.37
2023-01-10T12:32:52.148Z,956.37
2023-01-10T12:33:52.130Z,956.41
2023-01-10T12:34:52.110Z,956.48
2023-01-10T12:35:52.095Z,956.46
2023-01-10T12:36:52.077Z,956.47
2023-01-10T12:37:52.088Z,956.47
2023-01-10T12:38:52.047Z,956.47
2023-01-10T12:39:52.039Z,956.42
2023-01-10T12:40:52.013Z,956.45
2023-01-10T12:41:51.997Z,956.45
2023-01-10T12:42:51.980Z,956.39
2023-01-10T12:43:51.966Z,956.36
2023-01-10T12:44:51.952Z,956.37
2023-01-10T12:45:51.950Z,956.4
2023-01-10T12:47:10.697Z,956.43
2023-01-10T12:47:51.901Z,956.38